Lanesville, Illinois
Current Conditions -  °F | °C
As of 1:52 AM on Saturday 25 Oct 2014 (Local Time) from KSPI Reporting Station
Few Clouds Few Clouds  
Wind Chill: 16°   Ceiling: Unl
Heat Index: 16°   Visibility: 10mi
Dew Point: 11°   Wind: 5mph
Humidity: 72%   Direction: 230°SW
Pressure: 29.96"   Gusts: NA
Location:  39.8448°N, 89.3474°W
Report Text: KSPI 250652Z AUTO 23004KT 10SM FEW041 16/11 A2996 RMK AO2 SLP144 T01560106
Loading
Personal Weather Stations






























Interactive Weather Map
Tropical Storm Tracking
New forecast layout! Learn more

10-Day Weather Forecast

Advertisements
Track Severe Weather on mobile